createdAt,value
2023-10-06T00:02:53.182Z,12.44
2023-10-06T00:05:57.730Z,12.50
2023-10-06T00:09:00.713Z,12.58
2023-10-06T00:12:06.567Z,12.54
2023-10-06T00:15:13.045Z,12.55
2023-10-06T00:18:25.400Z,12.57
2023-10-06T00:21:30.447Z,12.60
2023-10-06T00:24:33.210Z,12.47
2023-10-06T00:27:39.523Z,12.55
2023-10-06T00:30:42.664Z,12.58
2023-10-06T00:33:46.520Z,12.57
2023-10-06T00:36:53.254Z,12.60
2023-10-06T00:39:57.458Z,12.60
2023-10-06T00:43:02.203Z,12.53
2023-10-06T00:46:08.044Z,12.51
2023-10-06T00:49:11.075Z,12.58
2023-10-06T00:52:16.839Z,12.35
2023-10-06T00:55:21.526Z,12.26
2023-10-06T00:58:27.773Z,12.30
2023-10-06T01:01:30.783Z,12.30
2023-10-06T01:04:36.461Z,12.39
2023-10-06T01:07:39.902Z,12.33
2023-10-06T01:10:42.635Z,12.32
2023-10-06T01:13:56.920Z,12.24
2023-10-06T01:17:18.410Z,12.09
2023-10-06T01:20:50.616Z,12.02
2023-10-06T01:23:54.921Z,11.85
2023-10-06T01:27:01.925Z,11.71
2023-10-06T01:30:17.395Z,11.57
2023-10-06T01:33:20.564Z,11.48
2023-10-06T01:36:26.235Z,11.41
2023-10-06T01:39:33.087Z,11.37
2023-10-06T01:42:35.823Z,11.38
2023-10-06T01:45:45.355Z,11.42
2023-10-06T01:48:48.375Z,11.52
2023-10-06T01:52:06.464Z,11.57
2023-10-06T01:55:12.310Z,11.64
2023-10-06T01:58:15.165Z,11.71
2023-10-06T02:01:20.068Z,11.78
2023-10-06T02:04:26.748Z,11.80
2023-10-06T02:07:29.589Z,11.87
2023-10-06T02:10:33.819Z,11.91
2023-10-06T02:13:39.228Z,12.04
2023-10-06T02:16:42.094Z,12.05
2023-10-06T02:19:45.031Z,12.13
2023-10-06T02:22:47.818Z,12.09
2023-10-06T02:25:50.632Z,12.06
2023-10-06T02:28:55.878Z,12.03
2023-10-06T02:32:08.966Z,11.99
2023-10-06T02:35:14.009Z,11.97
2023-10-06T02:38:17.037Z,11.97
2023-10-06T02:41:27.555Z,12.01
2023-10-06T02:44:31.837Z,12.07
2023-10-06T02:47:34.847Z,12.11
2023-10-06T02:50:37.811Z,12.19
2023-10-06T02:53:40.583Z,12.12
2023-10-06T02:56:45.640Z,12.12
2023-10-06T02:59:49.750Z,12.09
2023-10-06T03:03:20.065Z,12.07
2023-10-06T03:06:23.026Z,12.11
2023-10-06T03:09:29.408Z,12.18
2023-10-06T03:12:33.384Z,12.24
2023-10-06T03:15:46.963Z,12.25
2023-10-06T03:18:53.794Z,12.28
2023-10-06T03:22:02.344Z,12.27
2023-10-06T03:25:15.651Z,12.30
2023-10-06T03:28:19.604Z,12.31
2023-10-06T03:31:22.502Z,12.36
2023-10-06T03:34:27.473Z,12.38
2023-10-06T03:37:38.568Z,12.40
2023-10-06T03:40:49.723Z,12.47
2023-10-06T03:43:54.628Z,12.58
2023-10-06T03:47:03.004Z,12.71
2023-10-06T03:50:09.347Z,12.80
2023-10-06T03:53:14.398Z,12.97
2023-10-06T03:56:17.867Z,13.10
2023-10-06T03:59:22.827Z,13.27
2023-10-06T04:02:40.053Z,13.27
2023-10-06T04:05:45.648Z,13.29
2023-10-06T04:08:48.664Z,13.27
2023-10-06T04:11:53.460Z,13.25
2023-10-06T04:14:56.352Z,13.41
2023-10-06T04:17:59.089Z,13.43
2023-10-06T04:21:04.339Z,13.44
2023-10-06T04:24:07.336Z,13.66
2023-10-06T04:27:10.914Z,13.78
2023-10-06T04:30:14.007Z,13.87
2023-10-06T04:33:19.921Z,13.97
2023-10-06T04:36:24.352Z,13.98
2023-10-06T04:39:28.023Z,14.02
2023-10-06T04:42:32.908Z,14.08
2023-10-06T04:45:35.790Z,14.05
2023-10-06T04:48:39.423Z,14.13
2023-10-06T04:51:42.841Z,14.18
2023-10-06T04:54:45.772Z,14.22
2023-10-06T04:57:48.893Z,14.20
2023-10-06T05:00:54.863Z,14.21
2023-10-06T05:03:57.695Z,14.31
2023-10-06T05:07:01.983Z,14.31
2023-10-06T05:10:15.203Z,14.35
2023-10-06T05:13:18.021Z,14.40
2023-10-06T05:16:21.246Z,14.48
2023-10-06T05:19:24.136Z,14.55
2023-10-06T05:22:26.829Z,14.65
2023-10-06T05:25:30.930Z,14.70
2023-10-06T05:28:35.296Z,14.82
2023-10-06T05:31:38.592Z,14.89
2023-10-06T05:34:41.812Z,14.90
2023-10-06T05:37:48.083Z,15.05
2023-10-06T05:40:50.969Z,15.01
2023-10-06T05:43:54.404Z,15.10
2023-10-06T05:46:57.602Z,15.11
2023-10-06T05:50:01.345Z,15.13
2023-10-06T05:53:14.490Z,15.17
2023-10-06T05:56:17.923Z,15.17
2023-10-06T05:59:23.006Z,15.32
2023-10-06T06:02:26.885Z,15.47
2023-10-06T06:05:37.231Z,15.51
2023-10-06T06:08:41.878Z,15.53
2023-10-06T06:11:44.714Z,15.49
2023-10-06T06:14:47.794Z,15.63
2023-10-06T06:17:52.499Z,15.83
2023-10-06T06:20:55.959Z,15.98
2023-10-06T06:23:59.151Z,16.33
2023-10-06T06:27:03.202Z,16.60
2023-10-06T06:30:07.152Z,16.97
2023-10-06T06:33:13.600Z,17.09
2023-10-06T06:36:16.680Z,17.24
2023-10-06T06:39:20.210Z,17.48
2023-10-06T06:42:24.098Z,17.95
2023-10-06T06:45:27.381Z,18.42
2023-10-06T06:48:45.317Z,19.47
2023-10-06T06:52:17.053Z,20.48
2023-10-06T06:55:44.309Z,21.51
2023-10-06T07:02:18.184Z,23.20
2023-10-06T07:05:23.044Z,24.47
2023-10-06T07:08:26.701Z,24.32
2023-10-06T07:11:29.975Z,24.26
2023-10-06T07:14:32.914Z,23.95
2023-10-06T07:17:35.715Z,23.17
2023-10-06T07:20:38.822Z,22.28
2023-10-06T07:23:41.636Z,21.54
2023-10-06T07:26:45.008Z,22.17
2023-10-06T07:29:56.469Z,21.94
2023-10-06T07:33:00.629Z,22.35
2023-10-06T07:36:13.654Z,22.30
2023-10-06T07:39:22.243Z,22.11
2023-10-06T07:42:25.427Z,21.91
2023-10-06T07:45:28.385Z,21.89
2023-10-06T07:48:31.255Z,22.11
2023-10-06T07:51:35.127Z,22.09
2023-10-06T07:54:38.239Z,22.39
2023-10-06T07:57:47.079Z,23.27
2023-10-06T08:00:52.973Z,25.14
2023-10-06T08:03:55.734Z,26.17
2023-10-06T08:06:58.527Z,27.21
2023-10-06T08:10:06.174Z,26.27
2023-10-06T08:13:12.036Z,27.15
2023-10-06T08:16:14.925Z,28.42
2023-10-06T08:19:18.066Z,27.31
2023-10-06T08:22:23.555Z,27.24
2023-10-06T08:25:27.346Z,27.82
2023-10-06T08:28:33.154Z,27.93
2023-10-06T08:31:36.186Z,28.45
2023-10-06T08:34:40.686Z,30.78
2023-10-06T08:37:48.576Z,31.09
2023-10-06T08:40:57.650Z,31.29
2023-10-06T08:44:04.067Z,30.03
2023-10-06T08:47:26.223Z,30.42
2023-10-06T08:50:34.232Z,30.75
2023-10-06T08:53:41.351Z,32.59
2023-10-06T08:56:44.779Z,33.39
2023-10-06T08:59:47.626Z,32.37
2023-10-06T09:02:52.968Z,32.61
2023-10-06T09:05:55.723Z,31.31
2023-10-06T09:08:58.971Z,31.84
2023-10-06T09:12:01.715Z,31.71
2023-10-06T09:15:05.659Z,32.35
2023-10-06T09:18:29.220Z,33.60
2023-10-06T09:21:33.900Z,31.52
2023-10-06T09:24:36.712Z,32.94
2023-10-06T09:27:39.578Z,32.74
2023-10-06T09:30:58.654Z,33.25
2023-10-06T09:34:01.712Z,32.87
2023-10-06T09:37:20.294Z,33.40
2023-10-06T09:40:23.586Z,33.23
2023-10-06T09:43:26.711Z,32.03
2023-10-06T09:46:30.789Z,32.69
2023-10-06T09:49:35.127Z,32.47
2023-10-06T09:52:43.849Z,31.63
2023-10-06T09:55:50.781Z,32.07
2023-10-06T09:58:53.884Z,32.75
2023-10-06T10:01:58.996Z,33.36
2023-10-06T10:05:04.634Z,33.37
2023-10-06T10:08:11.237Z,34.72
2023-10-06T10:11:30.542Z,34.48
2023-10-06T10:14:46.047Z,34.13
2023-10-06T10:18:19.054Z,34.49
2023-10-06T10:21:23.747Z,32.29
2023-10-06T10:27:34.496Z,35.08
2023-10-06T10:30:52.276Z,35.20
2023-10-06T10:33:58.128Z,33.60
2023-10-06T10:37:09.303Z,33.43
2023-10-06T10:40:15.738Z,34.41
2023-10-06T10:43:18.591Z,34.29
2023-10-06T10:46:31.727Z,34.34
2023-10-06T10:49:34.680Z,34.35
2023-10-06T10:52:37.696Z,34.43
2023-10-06T10:55:44.069Z,34.24
2023-10-06T10:58:47.676Z,35.26
2023-10-06T11:01:52.977Z,34.41
2023-10-06T11:04:55.890Z,34.70
2023-10-06T11:08:04.953Z,34.08
2023-10-06T11:11:11.817Z,34.33
2023-10-06T11:14:14.766Z,33.47
2023-10-06T11:17:25.073Z,34.84
2023-10-06T11:20:35.050Z,34.85
2023-10-06T11:24:11.128Z,34.80
2023-10-06T11:27:41.790Z,34.86
2023-10-06T11:30:59.608Z,34.55
2023-10-06T11:34:03.097Z,34.02
2023-10-06T11:37:06.675Z,34.63
2023-10-06T11:40:12.588Z,34.41
2023-10-06T11:43:20.103Z,35.07
2023-10-06T11:46:22.924Z,35.37
2023-10-06T11:49:35.052Z,34.64
2023-10-06T11:52:44.825Z,34.27
2023-10-06T11:55:47.757Z,32.86
2023-10-06T11:58:50.674Z,33.13
2023-10-06T12:01:54.349Z,33.43
2023-10-06T12:05:10.831Z,34.67
2023-10-06T12:08:15.451Z,34.67
2023-10-06T12:11:18.381Z,34.06
2023-10-06T12:14:49.217Z,32.75
2023-10-06T12:18:16.719Z,34.24
2023-10-06T12:21:19.541Z,33.99
2023-10-06T12:24:23.913Z,33.48
2023-10-06T12:27:28.379Z,33.44
2023-10-06T12:30:31.546Z,33.90
2023-10-06T12:33:34.588Z,34.32
2023-10-06T12:36:38.089Z,32.10
2023-10-06T12:39:41.846Z,32.58
2023-10-06T12:42:45.547Z,33.17
2023-10-06T12:45:48.717Z,32.82
2023-10-06T12:48:51.500Z,34.03
2023-10-06T12:51:54.256Z,32.17
2023-10-06T12:54:57.069Z,33.32
2023-10-06T12:57:59.888Z,32.93
2023-10-06T13:01:02.696Z,32.46
2023-10-06T13:04:07.327Z,32.70
2023-10-06T13:07:10.319Z,31.97
2023-10-06T13:10:14.648Z,32.00
2023-10-06T13:13:17.490Z,32.38
2023-10-06T13:16:20.435Z,32.75
2023-10-06T13:19:23.053Z,32.57
2023-10-06T13:22:28.551Z,32.62
2023-10-06T13:25:32.766Z,32.11
2023-10-06T13:28:35.872Z,31.21
2023-10-06T13:31:42.195Z,31.00
2023-10-06T13:34:45.263Z,30.50
2023-10-06T13:37:49.250Z,31.04
2023-10-06T13:40:53.466Z,30.11
2023-10-06T13:43:56.147Z,30.61
2023-10-06T13:46:59.012Z,31.18
2023-10-06T13:50:02.211Z,31.13
2023-10-06T13:53:05.893Z,31.12
2023-10-06T13:56:09.575Z,30.16
2023-10-06T13:59:15.438Z,30.15
2023-10-06T14:02:18.280Z,30.74
2023-10-06T14:05:22.580Z,30.54
2023-10-06T14:08:26.564Z,30.58
2023-10-06T14:11:31.666Z,30.39
2023-10-06T14:14:46.701Z,29.96
2023-10-06T14:17:56.210Z,30.19
2023-10-06T14:20:59.447Z,30.13
2023-10-06T14:24:06.930Z,29.78
2023-10-06T14:27:12.536Z,29.60
2023-10-06T14:30:16.441Z,29.41
2023-10-06T14:33:40.035Z,29.17
2023-10-06T14:36:44.944Z,29.10
2023-10-06T14:40:10.933Z,29.17
2023-10-06T14:43:36.641Z,28.44
2023-10-06T14:46:41.258Z,26.12
2023-10-06T14:49:45.189Z,25.29
2023-10-06T14:52:48.254Z,24.83
2023-10-06T14:55:51.097Z,24.08
2023-10-06T14:58:57.669Z,23.68
2023-10-06T15:02:11.954Z,23.24
2023-10-06T15:05:16.546Z,23.14
2023-10-06T15:08:19.706Z,22.89
2023-10-06T15:11:22.538Z,22.54
2023-10-06T15:14:26.683Z,22.39
2023-10-06T15:17:32.451Z,22.19
2023-10-06T15:20:35.619Z,22.03
2023-10-06T15:23:38.300Z,21.79
2023-10-06T15:26:44.845Z,21.60
2023-10-06T15:29:47.652Z,21.51
2023-10-06T15:32:50.393Z,21.32
2023-10-06T15:35:54.311Z,21.16
2023-10-06T15:39:02.156Z,20.99
2023-10-06T15:42:05.679Z,20.82
2023-10-06T15:45:09.204Z,20.63
2023-10-06T15:48:14.718Z,20.41
2023-10-06T15:51:19.996Z,20.24
2023-10-06T15:54:23.575Z,20.02
2023-10-06T15:57:26.439Z,19.88
2023-10-06T16:00:30.738Z,19.71
2023-10-06T16:03:33.654Z,19.47
2023-10-06T16:06:37.941Z,19.27
2023-10-06T16:09:40.810Z,19.14
2023-10-06T16:12:43.949Z,18.87
2023-10-06T16:16:04.137Z,18.73
2023-10-06T16:19:18.618Z,18.46
2023-10-06T16:22:21.545Z,18.29
2023-10-06T16:25:25.033Z,18.15
2023-10-06T16:28:29.068Z,17.97
2023-10-06T16:31:33.373Z,17.78
2023-10-06T16:34:36.185Z,17.65
2023-10-06T16:37:38.820Z,17.56
2023-10-06T16:40:42.865Z,17.39
2023-10-06T16:43:45.598Z,17.27
2023-10-06T16:46:49.435Z,17.09
2023-10-06T16:49:52.321Z,16.99
2023-10-06T16:52:56.620Z,16.91
2023-10-06T16:56:00.188Z,16.75
2023-10-06T16:59:02.847Z,16.66
2023-10-06T17:02:05.661Z,16.54
2023-10-06T17:05:08.886Z,16.38
2023-10-06T17:08:11.812Z,16.27
2023-10-06T17:11:22.810Z,16.14
2023-10-06T17:14:25.445Z,16.05
2023-10-06T17:17:28.341Z,15.97
2023-10-06T17:20:31.163Z,15.81
2023-10-06T17:23:35.002Z,15.66
2023-10-06T17:26:37.776Z,15.55
2023-10-06T17:29:40.669Z,15.47
2023-10-06T17:32:47.134Z,15.36
2023-10-06T17:35:50.804Z,15.28
2023-10-06T17:38:56.380Z,15.19
2023-10-06T17:41:59.103Z,15.11
2023-10-06T17:45:04.230Z,15.03
2023-10-06T17:48:07.444Z,14.96
2023-10-06T17:51:20.524Z,14.86
2023-10-06T17:54:23.543Z,14.77
2023-10-06T17:57:26.804Z,14.70
2023-10-06T18:00:29.679Z,14.62
2023-10-06T18:03:32.621Z,14.56
2023-10-06T18:06:35.642Z,14.48
2023-10-06T18:09:38.978Z,14.39
2023-10-06T18:12:42.406Z,14.28
2023-10-06T18:15:48.351Z,14.14
2023-10-06T18:18:51.047Z,14.04
2023-10-06T18:21:53.879Z,13.92
2023-10-06T18:24:56.664Z,13.89
2023-10-06T18:27:59.620Z,13.88
2023-10-06T18:31:02.444Z,13.76
2023-10-06T18:34:05.291Z,13.63
2023-10-06T18:37:08.121Z,13.53
2023-10-06T18:40:14.868Z,13.46
2023-10-06T18:43:18.225Z,13.41
2023-10-06T18:46:22.271Z,13.44
2023-10-06T18:49:25.392Z,13.42
2023-10-06T18:53:19.289Z,13.31
2023-10-06T18:56:21.938Z,13.15
2023-10-06T18:59:24.593Z,13.06
2023-10-06T19:02:29.603Z,12.96
2023-10-06T19:05:33.922Z,13.01
2023-10-06T19:08:44.953Z,13.03
2023-10-06T19:11:47.816Z,12.99
2023-10-06T19:14:50.798Z,13.01
2023-10-06T19:17:53.701Z,13.01
2023-10-06T19:21:03.013Z,12.82
2023-10-06T19:24:06.790Z,12.72
2023-10-06T19:27:12.616Z,12.60
2023-10-06T19:30:15.936Z,12.29
2023-10-06T19:33:18.562Z,12.13
2023-10-06T19:36:21.872Z,12.12
2023-10-06T19:39:29.644Z,11.86
2023-10-06T19:42:32.453Z,11.69
2023-10-06T19:45:40.728Z,11.67
2023-10-06T19:48:44.030Z,11.52
2023-10-06T19:51:47.905Z,11.40
2023-10-06T19:54:53.494Z,11.31
2023-10-06T19:57:56.807Z,11.20
2023-10-06T20:00:59.895Z,11.11
2023-10-06T20:04:04.465Z,11.09
2023-10-06T20:07:07.625Z,11.03
2023-10-06T20:10:10.589Z,10.85
2023-10-06T20:13:13.273Z,10.86
2023-10-06T20:16:17.504Z,10.91
2023-10-06T20:19:21.908Z,10.74
2023-10-06T20:22:25.458Z,10.65
2023-10-06T20:25:28.331Z,10.58
2023-10-06T20:28:31.226Z,10.50
2023-10-06T20:31:35.541Z,10.47
2023-10-06T20:34:39.217Z,10.47
2023-10-06T20:37:43.128Z,10.48
2023-10-06T20:40:47.737Z,10.49
2023-10-06T20:43:50.701Z,10.51
2023-10-06T20:46:53.566Z,10.57
2023-10-06T20:49:57.249Z,10.54
2023-10-06T20:53:00.698Z,10.49
2023-10-06T20:56:04.756Z,10.50
2023-10-06T20:59:08.871Z,10.50
2023-10-06T21:02:11.559Z,10.54
2023-10-06T21:05:17.114Z,10.58
2023-10-06T21:08:20.413Z,10.58
2023-10-06T21:11:24.302Z,10.62
2023-10-06T21:14:27.177Z,10.65
2023-10-06T21:17:30.026Z,10.58
2023-10-06T21:20:32.724Z,10.55
2023-10-06T21:23:35.343Z,10.51
2023-10-06T21:26:38.325Z,10.50
2023-10-06T21:29:42.642Z,10.48
2023-10-06T21:32:46.463Z,10.47
2023-10-06T21:35:49.577Z,10.57
2023-10-06T21:38:52.268Z,10.55
2023-10-06T21:41:55.022Z,10.43
2023-10-06T21:44:57.615Z,10.39
2023-10-06T21:48:00.774Z,10.30
2023-10-06T21:51:03.585Z,10.25
2023-10-06T21:54:06.519Z,10.22
2023-10-06T21:57:10.550Z,10.29
2023-10-06T22:00:26.584Z,10.27
2023-10-06T22:03:29.739Z,10.21
2023-10-06T22:06:33.915Z,10.18
2023-10-06T22:09:36.711Z,10.18
2023-10-06T22:12:39.523Z,10.11
2023-10-06T22:15:42.185Z,10.13
2023-10-06T22:18:45.441Z,10.11
2023-10-06T22:21:48.085Z,10.08
2023-10-06T22:24:50.825Z,10.08
2023-10-06T22:27:53.784Z,10.06
2023-10-06T22:30:56.597Z,10.01
2023-10-06T22:33:59.494Z,9.87
2023-10-06T22:37:09.726Z,9.74
2023-10-06T22:40:19.817Z,9.45
2023-10-06T22:43:22.537Z,9.11
2023-10-06T22:46:25.524Z,9.01
2023-10-06T22:49:28.329Z,9.02
2023-10-06T22:52:31.026Z,8.95
2023-10-06T22:56:00.250Z,8.85
2023-10-06T22:59:10.696Z,8.94
2023-10-06T23:02:14.004Z,8.90
2023-10-06T23:05:16.950Z,8.97
2023-10-06T23:08:19.735Z,8.95
2023-10-06T23:11:22.525Z,8.96
2023-10-06T23:14:25.296Z,8.93
2023-10-06T23:17:31.008Z,8.97
2023-10-06T23:20:43.162Z,8.96
2023-10-06T23:23:48.604Z,9.02
2023-10-06T23:26:51.495Z,9.06
2023-10-06T23:29:54.606Z,9.12
2023-10-06T23:32:57.376Z,9.11
2023-10-06T23:36:00.202Z,9.12
2023-10-06T23:39:02.874Z,9.15
2023-10-06T23:42:10.620Z,9.26
2023-10-06T23:45:16.969Z,9.23
2023-10-06T23:48:19.671Z,9.27
2023-10-06T23:51:22.580Z,9.23
2023-10-06T23:54:27.269Z,9.24
2023-10-06T23:57:33.190Z,9.29
